createdAt,value
2018-07-04T00:00:13.062Z,94.80
2018-07-04T00:02:52.469Z,94.80
2018-07-04T00:05:32.528Z,95.30
2018-07-04T00:08:12.588Z,95.90
2018-07-04T00:10:52.807Z,97.20
2018-07-04T00:13:32.881Z,97.70
2018-07-04T00:16:12.843Z,98.30
2018-07-04T00:18:53.034Z,98.10
2018-07-04T00:21:33.115Z,99.00
2018-07-04T00:24:16.475Z,99.10
2018-07-04T00:26:56.655Z,99.90
2018-07-04T00:29:36.733Z,99.90
2018-07-04T00:32:17.058Z,99.90
2018-07-04T00:35:00.726Z,99.90
2018-07-04T00:37:40.200Z,99.90
2018-07-04T00:40:21.684Z,99.90
2018-07-04T00:43:01.684Z,99.90
2018-07-04T00:45:41.960Z,99.90
2018-07-04T00:48:21.936Z,99.90
2018-07-04T00:51:02.041Z,99.90
2018-07-04T00:53:42.075Z,99.90
2018-07-04T00:56:22.236Z,99.90
2018-07-04T00:59:02.471Z,99.90
2018-07-04T01:01:43.795Z,99.90
2018-07-04T01:04:27.246Z,99.90
2018-07-04T01:07:07.415Z,99.90
2018-07-04T01:09:47.677Z,99.90
2018-07-04T01:12:27.627Z,99.90
2018-07-04T01:15:11.571Z,99.90
2018-07-04T01:17:51.793Z,99.90
2018-07-04T01:20:31.927Z,99.90
2018-07-04T01:23:12.005Z,99.90
2018-07-04T01:25:54.984Z,99.90
2018-07-04T01:28:34.949Z,99.90
2018-07-04T01:31:15.076Z,99.90
2018-07-04T01:33:55.124Z,99.90
2018-07-04T01:36:35.216Z,99.90
2018-07-04T01:39:15.323Z,99.90
2018-07-04T01:41:55.436Z,99.90
2018-07-04T01:44:39.112Z,99.90
2018-07-04T01:47:19.167Z,99.90
2018-07-04T01:50:00.497Z,99.90
2018-07-04T01:52:40.551Z,99.90
2018-07-04T01:55:20.700Z,99.90
2018-07-04T01:58:00.698Z,99.90
2018-07-04T02:00:40.864Z,99.90
2018-07-04T02:03:27.114Z,99.90
2018-07-04T02:06:07.172Z,99.90
2018-07-04T02:08:47.416Z,99.90
2018-07-04T02:11:27.949Z,99.90
2018-07-04T02:14:08.085Z,99.90
2018-07-04T02:16:48.103Z,99.90
2018-07-04T02:19:28.368Z,99.90
2018-07-04T02:22:08.428Z,99.90
2018-07-04T02:24:48.605Z,99.90
2018-07-04T02:27:30.010Z,99.90
2018-07-04T02:30:10.212Z,99.90
2018-07-04T02:32:51.193Z,99.90
2018-07-04T02:35:31.336Z,99.90
2018-07-04T02:38:11.408Z,99.90
2018-07-04T02:40:51.373Z,99.90
2018-07-04T02:43:31.497Z,99.90
2018-07-04T02:46:11.577Z,99.90
2018-07-04T02:48:51.770Z,99.90
2018-07-04T02:51:31.875Z,99.90
2018-07-04T02:54:12.064Z,99.90
2018-07-04T02:56:55.553Z,99.90
2018-07-04T02:59:35.588Z,99.90
2018-07-04T03:02:15.706Z,99.90
2018-07-04T03:04:55.905Z,99.90
2018-07-04T03:07:36.003Z,99.90
2018-07-04T03:10:15.993Z,99.90
2018-07-04T03:12:56.177Z,99.90
2018-07-04T03:15:36.903Z,99.90
2018-07-04T03:18:16.216Z,99.90
2018-07-04T03:20:56.134Z,99.90
2018-07-04T03:23:37.269Z,99.90
2018-07-04T03:26:17.389Z,99.90
2018-07-04T03:28:57.620Z,99.90
2018-07-04T03:31:37.569Z,99.90
2018-07-04T03:34:17.785Z,99.90
2018-07-04T03:36:57.883Z,99.90
2018-07-04T03:39:38.100Z,99.90
2018-07-04T03:42:19.084Z,99.90
2018-07-04T03:45:00.103Z,99.90
2018-07-04T03:47:40.092Z,99.90
2018-07-04T03:50:20.700Z,99.90
2018-07-04T03:53:00.752Z,99.90
2018-07-04T03:55:41.017Z,99.90
2018-07-04T03:58:27.388Z,99.90
2018-07-04T04:01:07.892Z,99.90
2018-07-04T04:03:48.081Z,99.90
2018-07-04T04:06:28.306Z,99.90
2018-07-04T04:09:08.499Z,99.90
2018-07-04T04:11:50.318Z,99.90
2018-07-04T04:14:33.785Z,99.90
2018-07-04T04:17:13.717Z,99.90
2018-07-04T04:19:53.859Z,99.90
2018-07-04T04:22:33.833Z,99.90
2018-07-04T04:25:13.822Z,99.90
2018-07-04T04:27:53.814Z,99.90
2018-07-04T04:30:33.912Z,99.90
2018-07-04T04:33:13.992Z,99.90
2018-07-04T04:35:54.222Z,99.90
2018-07-04T04:38:34.456Z,99.90
2018-07-04T04:41:14.508Z,99.90
2018-07-04T04:43:54.653Z,99.90
2018-07-04T04:46:34.796Z,99.90
2018-07-04T04:49:14.896Z,99.90
2018-07-04T04:51:54.940Z,99.90
2018-07-04T04:54:34.929Z,99.90
2018-07-04T04:57:15.017Z,99.90
2018-07-04T04:59:55.116Z,99.90
2018-07-04T05:02:35.311Z,99.90
2018-07-04T05:05:15.395Z,99.90
2018-07-04T05:07:55.457Z,99.90
2018-07-04T05:10:35.652Z,99.90
2018-07-04T05:13:15.832Z,99.90
2018-07-04T05:15:55.940Z,99.90
2018-07-04T05:18:35.973Z,99.90
2018-07-04T05:21:16.127Z,99.90
2018-07-04T05:23:56.089Z,99.90
2018-07-04T05:26:36.271Z,99.90
2018-07-04T05:29:16.320Z,99.90
2018-07-04T05:31:56.469Z,99.90
2018-07-04T05:34:37.977Z,99.90
2018-07-04T05:37:17.995Z,99.90
2018-07-04T05:39:58.239Z,99.90
2018-07-04T05:42:38.407Z,99.90
2018-07-04T05:45:18.475Z,99.90
2018-07-04T05:47:58.984Z,99.90
2018-07-04T05:50:39.088Z,99.90
2018-07-04T05:53:19.212Z,99.90
2018-07-04T05:56:00.883Z,99.90
2018-07-04T05:58:40.940Z,99.90
2018-07-04T06:01:27.410Z,99.90
2018-07-04T06:04:07.645Z,99.90
2018-07-04T06:06:47.665Z,99.90
2018-07-04T06:09:27.689Z,99.90
2018-07-04T06:12:07.853Z,99.90
2018-07-04T06:14:48.020Z,99.90
2018-07-04T06:17:28.253Z,99.90
2018-07-04T06:20:08.495Z,99.90
2018-07-04T06:22:48.756Z,99.90
2018-07-04T06:25:29.353Z,99.90
2018-07-04T06:28:09.427Z,99.90
2018-07-04T06:30:50.312Z,99.90
2018-07-04T06:33:30.307Z,99.90
2018-07-04T06:36:10.445Z,99.90
2018-07-04T06:38:38.223Z,99.90
2018-07-04T06:41:06.028Z,99.90
2018-07-04T06:43:33.792Z,99.90
2018-07-04T06:46:01.567Z,99.90
2018-07-04T06:48:29.393Z,99.90
2018-07-04T06:50:57.151Z,99.90
2018-07-04T06:53:24.940Z,99.90
2018-07-04T06:55:51.932Z,99.90
2018-07-04T06:58:19.707Z,99.90
2018-07-04T07:00:47.480Z,99.90
2018-07-04T07:03:28.243Z,99.90
2018-07-04T07:06:08.369Z,99.90
2018-07-04T07:08:48.537Z,99.90
2018-07-04T07:11:28.667Z,99.90
2018-07-04T07:14:09.528Z,99.90
2018-07-04T07:16:49.664Z,99.90
2018-07-04T07:19:30.620Z,99.90
2018-07-04T07:22:10.951Z,99.90
2018-07-04T07:24:51.028Z,99.90
2018-07-04T07:27:31.211Z,99.90
2018-07-04T07:30:11.400Z,99.90
2018-07-04T07:32:56.991Z,99.90
2018-07-04T07:35:37.035Z,99.90
2018-07-04T07:38:17.377Z,99.90
2018-07-04T07:40:57.437Z,99.90
2018-07-04T07:43:37.804Z,99.90
2018-07-04T07:46:18.057Z,99.90
2018-07-04T07:48:58.097Z,99.90
2018-07-04T07:51:38.317Z,99.90
2018-07-04T07:54:18.484Z,99.90
2018-07-04T07:56:58.521Z,99.90
2018-07-04T07:59:38.575Z,99.90
2018-07-04T08:02:18.736Z,99.90
2018-07-04T08:04:59.128Z,99.90
2018-07-04T08:07:39.223Z,99.90
2018-07-04T08:10:19.227Z,99.90
2018-07-04T08:13:00.437Z,99.90
2018-07-04T08:15:40.585Z,99.90
2018-07-04T08:18:21.620Z,99.90
2018-07-04T08:21:02.617Z,99.90
2018-07-04T08:23:44.230Z,99.90
2018-07-04T08:26:24.337Z,99.90
2018-07-04T08:29:04.464Z,99.90
2018-07-04T08:31:44.441Z,99.90
2018-07-04T08:34:24.604Z,99.90
2018-07-04T08:37:04.556Z,99.90
2018-07-04T08:39:44.610Z,99.90
2018-07-04T08:42:24.611Z,99.90
2018-07-04T08:45:04.792Z,99.90
2018-07-04T08:47:44.831Z,99.90
2018-07-04T08:50:24.861Z,99.90
2018-07-04T08:53:04.115Z,99.90
2018-07-04T08:55:44.349Z,99.90
2018-07-04T08:58:24.328Z,99.90
2018-07-04T09:01:04.468Z,99.90
2018-07-04T09:03:45.469Z,99.90
2018-07-04T09:06:24.816Z,99.90
2018-07-04T09:09:08.560Z,99.90
2018-07-04T09:11:48.696Z,99.90
2018-07-04T09:14:29.388Z,99.90
2018-07-04T09:17:09.526Z,99.90
2018-07-04T09:19:49.633Z,99.90
2018-07-04T09:22:30.745Z,99.90
2018-07-04T09:25:10.841Z,99.90
2018-07-04T09:27:52.086Z,99.90
2018-07-04T09:30:32.116Z,99.90
2018-07-04T09:33:12.212Z,99.90
2018-07-04T09:35:52.265Z,99.30
2018-07-04T09:38:32.471Z,99.10
2018-07-04T09:41:12.509Z,98.00
2018-07-04T09:43:52.668Z,98.40
2018-07-04T09:46:32.680Z,98.90
2018-07-04T09:49:12.840Z,98.90
2018-07-04T09:51:52.895Z,99.50
2018-07-04T09:54:33.007Z,99.90
2018-07-04T09:57:13.092Z,99.70
2018-07-04T09:59:53.211Z,99.90
2018-07-04T10:02:33.404Z,99.90
2018-07-04T10:05:13.576Z,99.40
2018-07-04T10:07:53.657Z,99.20
2018-07-04T10:10:33.775Z,98.70
2018-07-04T10:13:13.848Z,98.80
2018-07-04T10:15:53.892Z,97.30
2018-07-04T10:18:34.993Z,98.20
2018-07-04T10:21:19.653Z,96.00
2018-07-04T10:24:00.912Z,94.90
2018-07-04T10:26:41.062Z,93.80
2018-07-04T10:29:21.213Z,94.80
2018-07-04T10:32:01.253Z,96.40
2018-07-04T10:34:41.301Z,95.40
2018-07-04T10:37:21.936Z,94.90
2018-07-04T10:40:02.044Z,94.80
2018-07-04T10:42:42.093Z,95.60
2018-07-04T10:45:22.069Z,94.30
2018-07-04T10:48:02.228Z,94.20
2018-07-04T10:50:42.331Z,94.00
2018-07-04T10:53:22.905Z,92.80
2018-07-04T10:56:03.019Z,93.50
2018-07-04T10:58:42.937Z,93.00
2018-07-04T11:01:23.061Z,92.80
2018-07-04T11:04:03.160Z,94.70
2018-07-04T11:06:43.307Z,93.50
2018-07-04T11:09:22.753Z,93.50
2018-07-04T11:12:02.802Z,93.30
2018-07-04T11:14:42.839Z,93.30
2018-07-04T11:17:22.905Z,93.60
2018-07-04T11:20:03.121Z,93.60
2018-07-04T11:22:43.151Z,93.10
2018-07-04T11:25:23.229Z,93.80
2018-07-04T11:28:03.572Z,93.50
2018-07-04T11:30:43.588Z,94.60
2018-07-04T11:33:23.589Z,93.20
2018-07-04T11:36:03.714Z,93.80
2018-07-04T11:38:43.804Z,92.40
2018-07-04T11:41:23.848Z,93.80
2018-07-04T11:44:04.386Z,93.00
2018-07-04T11:46:31.416Z,93.00
2018-07-04T11:49:00.665Z,91.60
2018-07-04T11:51:28.452Z,91.70
2018-07-04T11:53:56.217Z,91.00
2018-07-04T11:56:24.047Z,90.60
2018-07-04T11:58:51.791Z,91.00
2018-07-04T12:01:19.587Z,90.70
2018-07-04T12:04:00.772Z,89.90
2018-07-04T12:06:40.921Z,88.80
2018-07-04T12:09:08.697Z,90.50
2018-07-04T12:11:36.459Z,91.50
2018-07-04T12:14:04.253Z,91.80
2018-07-04T12:16:32.055Z,91.80
2018-07-04T12:19:00.620Z,92.20
2018-07-04T12:21:28.421Z,92.80
2018-07-04T12:23:55.420Z,92.80
2018-07-04T12:26:23.211Z,93.10
2018-07-04T12:28:52.000Z,93.30
2018-07-04T12:31:19.792Z,92.10
2018-07-04T12:33:47.589Z,93.60
2018-07-04T12:36:15.346Z,94.00
2018-07-04T12:38:43.133Z,93.80
2018-07-04T12:41:10.917Z,92.20
2018-07-04T12:43:38.728Z,93.40
2018-07-04T12:46:06.496Z,93.20
2018-07-04T12:48:34.286Z,93.50
2018-07-04T12:51:02.063Z,91.70
2018-07-04T12:53:30.403Z,91.70
2018-07-04T12:56:10.674Z,91.90
2018-07-04T12:58:52.029Z,93.00
2018-07-04T13:01:32.143Z,93.80
2018-07-04T13:04:12.200Z,95.10
2018-07-04T13:06:52.291Z,95.00
2018-07-04T13:09:32.516Z,92.60
2018-07-04T13:12:12.612Z,93.80
2018-07-04T13:14:52.712Z,94.70
2018-07-04T13:17:32.859Z,94.90
2018-07-04T13:20:13.336Z,94.90
2018-07-04T13:22:53.007Z,94.90
2018-07-04T13:25:33.159Z,94.40
2018-07-04T13:28:13.201Z,93.10
2018-07-04T13:30:53.375Z,94.90
2018-07-04T13:33:33.588Z,93.30
2018-07-04T13:36:13.657Z,94.40
2018-07-04T13:38:57.302Z,95.20
2018-07-04T13:41:37.523Z,94.60
2018-07-04T13:44:20.340Z,94.60
2018-07-04T13:47:00.567Z,96.00
2018-07-04T13:49:40.573Z,95.80
2018-07-04T13:52:22.075Z,96.20
2018-07-04T13:55:02.036Z,95.20
2018-07-04T13:57:42.213Z,95.10
2018-07-04T14:00:22.385Z,96.50
2018-07-04T14:03:02.389Z,95.30
2018-07-04T14:05:42.547Z,95.90
2018-07-04T14:08:22.773Z,97.70
2018-07-04T14:11:02.758Z,96.30
2018-07-04T14:13:43.779Z,95.50
2018-07-04T14:16:23.844Z,97.20
2018-07-04T14:19:04.892Z,96.70
2018-07-04T14:21:44.976Z,95.60
2018-07-04T14:24:28.382Z,95.50
2018-07-04T14:27:08.639Z,95.90
2018-07-04T14:29:48.672Z,96.00
2018-07-04T14:32:29.696Z,96.20
2018-07-04T14:35:09.728Z,97.00
2018-07-04T14:37:49.736Z,94.60
2018-07-04T14:40:30.930Z,95.20
2018-07-04T14:43:11.088Z,94.50
2018-07-04T14:45:52.040Z,94.90
2018-07-04T14:48:32.141Z,95.30
2018-07-04T14:51:12.217Z,94.30
2018-07-04T14:53:52.274Z,95.70
2018-07-04T14:56:32.281Z,94.90
2018-07-04T14:59:12.328Z,94.70
2018-07-04T15:01:52.560Z,94.10
2018-07-04T15:04:32.765Z,94.90
2018-07-04T15:07:17.538Z,94.80
2018-07-04T15:10:06.419Z,93.90
2018-07-04T15:12:52.978Z,93.80
2018-07-04T15:15:32.941Z,94.60
2018-07-04T15:18:16.290Z,93.90
2018-07-04T15:20:56.308Z,94.60
2018-07-04T15:23:42.653Z,94.60
2018-07-04T15:26:23.752Z,94.80
2018-07-04T15:29:04.850Z,94.60
2018-07-04T15:31:54.300Z,94.80
2018-07-04T15:34:35.716Z,95.40
2018-07-04T15:37:15.807Z,94.90
2018-07-04T15:39:56.009Z,95.00
2018-07-04T15:42:36.155Z,95.20
2018-07-04T15:45:16.327Z,94.50
2018-07-04T15:47:56.424Z,94.70
2018-07-04T15:50:37.689Z,94.70
2018-07-04T15:53:17.770Z,94.70
2018-07-04T15:55:58.456Z,95.10
2018-07-04T15:58:38.511Z,95.30
2018-07-04T16:01:18.426Z,95.20
2018-07-04T16:03:58.577Z,94.90
2018-07-04T16:06:38.589Z,95.00
2018-07-04T16:09:18.763Z,95.50
2018-07-04T16:11:59.909Z,95.20
2018-07-04T16:14:40.880Z,95.00
2018-07-04T16:17:21.939Z,95.80
2018-07-04T16:20:01.997Z,95.90
2018-07-04T16:22:42.108Z,95.80
2018-07-04T16:25:22.237Z,96.00
2018-07-04T16:28:02.404Z,95.80
2018-07-04T16:30:43.504Z,95.60
2018-07-04T16:33:23.752Z,95.60
2018-07-04T16:36:05.357Z,96.40
2018-07-04T16:38:45.278Z,95.80
2018-07-04T16:41:25.384Z,95.60
2018-07-04T16:44:06.498Z,94.90
2018-07-04T16:46:46.466Z,95.20
2018-07-04T16:49:26.600Z,95.60
2018-07-04T16:52:06.709Z,96.30
2018-07-04T16:54:46.692Z,96.50
2018-07-04T16:57:26.189Z,96.50
2018-07-04T17:00:06.354Z,96.90
2018-07-04T17:02:46.439Z,96.50
2018-07-04T17:05:26.621Z,96.00
2018-07-04T17:08:07.725Z,97.00
2018-07-04T17:10:47.829Z,96.60
2018-07-04T17:13:28.582Z,96.20
2018-07-04T17:16:08.493Z,95.60
2018-07-04T17:18:48.741Z,96.00
2018-07-04T17:21:28.820Z,95.90
2018-07-04T17:24:09.689Z,95.60
2018-07-04T17:26:49.841Z,95.80
2018-07-04T17:29:30.839Z,95.30
2018-07-04T17:32:11.113Z,96.00
2018-07-04T17:34:51.147Z,95.40
2018-07-04T17:37:31.232Z,94.30
2018-07-04T17:40:11.289Z,94.40
2018-07-04T17:42:52.460Z,94.80
2018-07-04T17:45:32.549Z,95.80
2018-07-04T17:48:12.593Z,96.10
2018-07-04T17:50:52.686Z,96.90
2018-07-04T17:53:32.603Z,95.90
2018-07-04T17:56:12.699Z,96.40
2018-07-04T17:58:52.725Z,97.00
2018-07-04T18:01:32.885Z,97.50
2018-07-04T18:04:12.117Z,97.50
2018-07-04T18:06:52.449Z,99.90
2018-07-04T18:09:32.565Z,99.90
2018-07-04T18:12:12.845Z,99.90
2018-07-04T18:14:53.133Z,99.90
2018-07-04T18:17:33.154Z,98.80
2018-07-04T18:20:13.395Z,99.20
2018-07-04T18:22:53.397Z,99.10
2018-07-04T18:25:33.530Z,99.00
2018-07-04T18:28:13.628Z,98.10
2018-07-04T18:30:53.703Z,98.50
2018-07-04T18:33:34.779Z,98.80
2018-07-04T18:36:14.731Z,98.50
2018-07-04T18:38:54.748Z,98.90
2018-07-04T18:41:34.697Z,99.90
2018-07-04T18:44:14.829Z,97.80
2018-07-04T18:46:55.025Z,97.20
2018-07-04T18:49:35.072Z,97.00
2018-07-04T18:52:15.092Z,97.60
2018-07-04T18:54:55.477Z,97.60
2018-07-04T18:57:35.427Z,96.40
2018-07-04T19:00:15.600Z,96.90
2018-07-04T19:02:55.517Z,97.20
2018-07-04T19:05:35.518Z,97.40
2018-07-04T19:08:15.607Z,97.70
2018-07-04T19:10:55.609Z,97.20
2018-07-04T19:13:35.711Z,96.40
2018-07-04T19:16:15.788Z,97.60
2018-07-04T19:18:56.004Z,98.00
2018-07-04T19:21:35.909Z,97.30
2018-07-04T19:24:15.929Z,97.20
2018-07-04T19:26:55.972Z,97.10
2018-07-04T19:29:36.103Z,97.30
2018-07-04T19:32:16.029Z,97.80
2018-07-04T19:34:56.210Z,96.80
2018-07-04T19:37:36.199Z,97.10
2018-07-04T19:40:16.314Z,97.40
2018-07-04T19:42:56.223Z,97.90
2018-07-04T19:45:35.520Z,97.90
2018-07-04T19:48:15.713Z,97.40
2018-07-04T19:50:55.772Z,97.30
2018-07-04T19:53:35.925Z,96.80
2018-07-04T19:56:15.980Z,97.10
2018-07-04T19:58:56.245Z,96.60
2018-07-04T20:01:36.276Z,98.30
2018-07-04T20:04:16.374Z,98.70
2018-07-04T20:06:56.459Z,99.90
2018-07-04T20:09:36.850Z,99.90
2018-07-04T20:12:16.805Z,99.90
2018-07-04T20:14:56.908Z,99.90
2018-07-04T20:17:37.312Z,99.90
2018-07-04T20:20:17.433Z,99.90
2018-07-04T20:22:56.716Z,99.90
2018-07-04T20:25:37.265Z,99.90
2018-07-04T20:28:17.412Z,99.90
2018-07-04T20:30:59.658Z,99.90
2018-07-04T20:33:39.731Z,98.90
2018-07-04T20:36:19.817Z,99.60
2018-07-04T20:39:01.047Z,99.30
2018-07-04T20:41:41.140Z,99.80
2018-07-04T20:44:21.084Z,99.50
2018-07-04T20:47:01.088Z,99.50
2018-07-04T20:49:41.020Z,99.60
2018-07-04T20:52:21.090Z,99.60
2018-07-04T20:55:01.173Z,99.90
2018-07-04T20:57:41.259Z,99.80
2018-07-04T21:00:22.030Z,99.50
2018-07-04T21:03:01.408Z,99.50
2018-07-04T21:05:41.292Z,99.40
2018-07-04T21:08:22.099Z,99.30
2018-07-04T21:11:02.080Z,98.60
2018-07-04T21:13:42.249Z,98.90
2018-07-04T21:16:22.264Z,98.30
2018-07-04T21:19:02.217Z,98.30
2018-07-04T21:21:42.187Z,98.90
2018-07-04T21:24:25.386Z,98.10
2018-07-04T21:27:05.547Z,98.00
2018-07-04T21:29:45.673Z,97.90
2018-07-04T21:32:25.775Z,97.90
2018-07-04T21:35:06.232Z,97.40
2018-07-04T21:37:46.393Z,97.30
2018-07-04T21:40:26.434Z,97.00
2018-07-04T21:43:07.698Z,98.70
2018-07-04T21:45:47.872Z,98.70
2018-07-04T21:48:27.127Z,98.70
2018-07-04T21:51:07.237Z,99.90
2018-07-04T21:53:46.343Z,99.90
2018-07-04T21:56:26.436Z,99.10
2018-07-04T21:59:06.491Z,99.40
2018-07-04T22:01:46.485Z,99.60
2018-07-04T22:04:26.688Z,99.90
2018-07-04T22:07:07.445Z,99.30
2018-07-04T22:09:47.506Z,98.20
2018-07-04T22:12:28.419Z,97.50
2018-07-04T22:15:09.492Z,98.20
2018-07-04T22:17:49.456Z,99.20
2018-07-04T22:20:30.449Z,97.70
2018-07-04T22:23:10.415Z,98.20
2018-07-04T22:25:51.581Z,99.00
2018-07-04T22:28:31.648Z,97.00
2018-07-04T22:31:11.709Z,95.60
2018-07-04T22:33:51.783Z,95.30
2018-07-04T22:36:32.005Z,95.30
2018-07-04T22:39:12.058Z,95.80
2018-07-04T22:41:52.233Z,96.50
2018-07-04T22:44:35.835Z,96.30
2018-07-04T22:47:15.860Z,96.70
2018-07-04T22:49:56.074Z,96.20
2018-07-04T22:52:36.080Z,95.90
2018-07-04T22:55:15.504Z,95.90
2018-07-04T22:57:55.518Z,96.90
2018-07-04T23:00:35.589Z,97.10
2018-07-04T23:03:15.656Z,96.80
2018-07-04T23:05:55.780Z,97.70
2018-07-04T23:08:35.887Z,97.80
2018-07-04T23:11:15.983Z,98.30
2018-07-04T23:13:55.957Z,97.80
2018-07-04T23:16:35.319Z,97.80
2018-07-04T23:19:15.394Z,99.20
2018-07-04T23:21:55.576Z,99.00
2018-07-04T23:24:38.745Z,97.20
2018-07-04T23:27:18.832Z,98.40
2018-07-04T23:29:59.839Z,98.70
2018-07-04T23:32:39.903Z,99.60
2018-07-04T23:35:20.726Z,98.60
2018-07-04T23:38:00.713Z,99.50
2018-07-04T23:40:40.861Z,98.90
2018-07-04T23:43:21.117Z,98.00
2018-07-04T23:46:01.020Z,97.80
2018-07-04T23:48:41.156Z,98.10
2018-07-04T23:51:27.216Z,99.60
2018-07-04T23:54:07.336Z,98.80
2018-07-04T23:56:47.361Z,98.00
2018-07-04T23:59:28.773Z,98.00
